Time;durP1;ratioP1;P1;durP2;ratioP2;P2;SDS_P1;SDS_P2;PMS_P1;PMS_P2;Temp;Humidity;BMP_temperature;BMP_pressure;BME280_temperature;BME280_humidity;BME280_pressure;Samples;Min_cycle;Max_cycle;Signal;HPM_P1;HPM_P2
2023/04/03 13:41:34;;;;;;;2.70;1.05;;;12.60;87.40;;;;;;5083874;27;20159;-56
2023/04/03 13:44:22;;;;;;;2.92;1.10;;;12.10;94.80;;;;;;5083175;28;20052;-54
2023/04/03 13:46:52;;;;;;;2.22;1.02;;;12.00;85.10;;;;;;5082133;28;20105;-56
2023/04/03 13:49:22;;;;;;;2.75;1.00;;;11.90;96.00;;;;;;5083460;28;20055;-57
2023/04/03 13:51:49;;;;;;;3.20;1.00;;;11.90;93.20;;;;;;5082696;28;20044;-56
2023/04/03 13:54:22;;;;;;;2.13;0.98;;;11.90;92.20;;;;;;5082023;28;20044;-57
2023/04/03 13:56:54;;;;;;;4.20;1.20;;;11.80;91.00;;;;;;5082304;28;20043;-56
2023/04/03 13:59:24;;;;;;;2.50;0.80;;;11.80;88.00;;;;;;5081902;28;20084;-57
2023/04/03 14:02:01;;;;;;;3.33;1.00;;;11.90;93.90;;;;;;5082396;28;20048;-57
2023/04/03 14:04:31;;;;;;;2.22;1.00;;;11.90;84.60;;;;;;5081815;28;20132;-57
2023/04/03 14:06:57;;;;;;;3.05;0.80;;;12.00;85.80;;;;;;5081439;28;20069;-58
2023/04/03 14:09:25;;;;;;;3.88;0.90;;;11.90;85.90;;;;;;5083279;28;20074;-56
2023/04/03 14:11:55;;;;;;;3.00;0.80;;;11.70;84.20;;;;;;5082403;28;20040;-56
2023/04/03 14:14:25;;;;;;;3.92;1.08;;;11.70;84.30;;;;;;5081979;28;20040;-59
2023/04/03 14:16:55;;;;;;;2.95;0.80;;;11.60;82.00;;;;;;5082137;28;20127;-57
2023/04/03 14:19:27;;;;;;;2.90;0.88;;;11.40;81.10;;;;;;5082424;28;20395;-57
2023/04/03 14:21:54;;;;;;;2.25;0.82;;;11.30;81.90;;;;;;5082632;28;20044;-57
2023/04/03 14:24:21;;;;;;;6.70;1.10;;;11.30;81.30;;;;;;5081913;28;20028;-54
2023/04/03 14:26:48;;;;;;;3.10;1.30;;;11.30;86.90;;;;;;5082108;28;20036;-56
2023/04/03 14:29:15;;;;;;;1.80;0.80;;;11.30;85.50;;;;;;5073878;28;20044;-58
2023/04/03 14:31:42;;;;;;;2.55;1.10;;;11.30;85.10;;;;;;5080623;28;20645;-57
2023/04/03 14:34:11;;;;;;;2.78;1.00;;;11.30;88.20;;;;;;5080460;28;20040;-56
2023/04/03 14:36:38;;;;;;;2.30;1.00;;;11.30;87.20;;;;;;5079461;28;20127;-60
2023/04/03 14:39:06;;;;;;;3.05;1.25;;;11.30;88.00;;;;;;5080113;28;20032;-58
2023/04/03 14:41:31;;;;;;;2.33;1.20;;;11.40;88.10;;;;;;5100633;28;20039;-57
2023/04/03 14:43:57;;;;;;;3.25;1.30;;;11.40;88.50;;;;;;5099321;28;20047;-57
2023/04/03 14:46:30;;;;;;;2.55;1.27;;;11.40;85.00;;;;;;5100528;28;20501;-58
2023/04/03 14:48:56;;;;;;;3.38;1.40;;;11.20;80.00;;;;;;5101280;28;20042;-58
2023/04/03 14:51:21;;;;;;;2.67;1.27;;;11.00;88.50;;;;;;5078090;28;20039;-58
2023/04/03 14:53:49;;;;;;;5.05;1.35;;;10.90;86.80;;;;;;5088313;28;20935;-58
2023/04/03 14:56:21;;;;;;;5.82;1.33;;;11.00;85.50;;;;;;5088139;28;20084;-58
2023/04/03 14:58:50;;;;;;;4.57;1.20;;;11.00;84.50;;;;;;5087212;28;20071;-58
2023/04/03 15:01:16;;;;;;;3.33;1.27;;;11.00;87.00;;;;;;5088327;28;20048;-58
2023/04/03 15:03:42;;;;;;;2.33;1.00;;;10.80;85.50;;;;;;5069433;28;20044;-59
2023/04/03 15:06:13;;;;;;;2.83;1.00;;;10.70;87.30;;;;;;5088191;28;20494;-59
2023/04/03 15:08:40;;;;;;;2.53;0.90;;;10.70;86.80;;;;;;5088437;28;20450;-55
2023/04/03 15:11:06;;;;;;;2.13;0.85;;;10.70;88.90;;;;;;5088089;28;20105;-58
2023/04/03 15:13:32;;;;;;;2.17;1.00;;;10.80;88.20;;;;;;5087494;28;20683;-57
2023/04/03 15:15:58;;;;;;;3.25;0.95;;;10.80;88.30;;;;;;5087846;28;20046;-58
2023/04/03 15:18:26;;;;;;;2.10;0.85;;;10.90;85.80;;;;;;5087366;28;20119;-58
2023/04/03 15:20:53;;;;;;;2.03;0.80;;;10.80;84.00;;;;;;5088075;28;20070;-50
2023/04/03 15:23:19;;;;;;;1.25;0.88;;;10.80;87.30;;;;;;5087715;28;20086;-55
2023/04/03 15:25:47;;;;;;;3.28;0.98;;;10.70;83.20;;;;;;5087183;28;20934;-56
2023/04/03 15:28:38;;;;;;;2.72;0.85;;;10.60;84.70;;;;;;5086292;28;20036;-57
2023/04/03 15:31:05;;;;;;;3.15;0.80;;;10.40;77.60;;;;;;5085435;28;20054;-58
2023/04/03 15:33:34;;;;;;;2.05;0.95;;;10.40;84.20;;;;;;5087463;28;20032;-58
2023/04/03 15:36:00;;;;;;;4.07;1.08;;;10.40;86.60;;;;;;5086741;28;20032;-57
2023/04/03 15:38:26;;;;;;;2.28;0.95;;;10.50;86.10;;;;;;5086902;28;20276;-53
2023/04/03 15:40:51;;;;;;;5.50;1.20;;;10.50;83.90;;;;;;5065640;28;20059;-57
2023/04/03 15:43:17;;;;;;;2.78;1.00;;;10.40;87.90;;;;;;5065960;28;20075;-56
2023/04/03 15:45:44;;;;;;;3.35;1.20;;;10.40;86.30;;;;;;5066457;28;20521;-57
2023/04/03 15:48:11;;;;;;;2.90;1.30;;;10.40;85.80;;;;;;5064702;28;20604;-59
2023/04/03 15:50:37;;;;;;;2.63;1.00;;;10.40;83.70;;;;;;5065689;28;20043;-58
2023/04/03 15:53:03;;;;;;;2.25;0.90;;;10.30;84.10;;;;;;5065517;28;20036;-52
2023/04/03 15:55:33;;;;;;;2.13;0.90;;;10.20;84.70;;;;;;5065006;28;20036;-58
2023/04/03 15:57:59;;;;;;;3.22;1.20;;;10.10;82.80;;;;;;5065268;28;20502;-56
2023/04/03 16:00:25;;;;;;;3.80;1.23;;;10.00;84.80;;;;;;5065364;28;20052;-54
2023/04/03 16:02:57;;;;;;;2.05;1.15;;;9.90;85.00;;;;;;5064372;28;20499;-56
2023/04/03 16:05:23;;;;;;;4.75;1.33;;;10.00;84.20;;;;;;5065075;28;20445;-58
2023/04/03 16:07:49;;;;;;;4.28;1.33;;;10.00;84.40;;;;;;5065885;28;20399;-57
2023/04/03 16:10:17;;;;;;;2.88;1.13;;;9.90;84.40;;;;;;5065544;28;20040;-55
2023/04/03 16:12:44;;;;;;;2.63;1.08;;;9.90;84.50;;;;;;5064088;28;20121;-58
2023/04/03 16:15:10;;;;;;;3.05;1.20;;;9.90;84.70;;;;;;5065878;28;20066;-59
2023/04/03 16:17:37;;;;;;;1.80;0.82;;;9.90;86.00;;;;;;5065732;28;20410;-56
2023/04/03 16:20:05;;;;;;;3.53;0.90;;;9.90;85.00;;;;;;5064299;28;20131;-58
2023/04/03 16:22:31;;;;;;;3.28;1.10;;;9.80;85.90;;;;;;5065290;28;20071;-59
2023/04/03 16:24:57;;;;;;;3.08;1.05;;;9.70;83.10;;;;;;5065699;28;20087;-59
2023/04/03 16:27:27;;;;;;;3.97;1.13;;;9.60;84.60;;;;;;5063397;28;20490;-58
2023/04/03 16:29:56;;;;;;;2.88;1.00;;;9.60;87.00;;;;;;5064754;28;20854;-58
2023/04/03 16:32:23;;;;;;;2.55;0.90;;;9.50;86.10;;;;;;5064614;28;20669;-54
2023/04/03 16:34:49;;;;;;;4.40;0.95;;;9.50;86.10;;;;;;5064563;28;20693;-59
2023/04/03 16:37:15;;;;;;;3.28;1.00;;;9.50;86.80;;;;;;5065446;28;20044;-55
2023/04/03 16:39:41;;;;;;;2.85;0.95;;;9.40;86.80;;;;;;5071487;28;20056;-57
2023/04/03 16:42:09;;;;;;;3.25;0.80;;;9.30;87.60;;;;;;5085401;28;20055;-57
2023/04/03 16:44:34;;;;;;;3.35;1.00;;;9.30;89.30;;;;;;5066682;28;20486;-58
2023/04/03 16:47:01;;;;;;;1.45;0.70;;;9.30;87.60;;;;;;5085386;28;20078;-59
2023/04/03 16:49:31;;;;;;;3.38;1.00;;;9.30;87.30;;;;;;5085461;28;20046;-59
2023/04/03 16:51:58;;;;;;;1.80;0.70;;;9.20;86.70;;;;;;5085301;28;20585;-59
2023/04/03 16:54:23;;;;;;;1.55;0.80;;;9.10;83.80;;;;;;5085319;28;20067;-59
2023/04/03 16:56:49;;;;;;;2.45;0.88;;;9.00;87.20;;;;;;5085784;28;20521;-57
2023/04/03 16:59:15;;;;;;;2.30;0.90;;;9.00;86.00;;;;;;5083512;28;20117;-57
2023/04/03 17:01:41;;;;;;;2.22;0.75;;;8.90;86.10;;;;;;5066759;28;20478;-55
2023/04/03 17:04:06;;;;;;;2.15;0.80;;;8.80;85.10;;;;;;5085883;28;20052;-55
2023/04/03 17:06:32;;;;;;;2.75;0.60;;;8.80;85.10;;;;;;5085179;28;20044;-56
2023/04/03 17:08:57;;;;;;;2.78;0.90;;;8.70;85.10;;;;;;5085534;28;20043;-56
2023/04/03 17:11:23;;;;;;;2.97;0.80;;;8.70;86.20;;;;;;5084874;28;20086;-58
2023/04/03 17:13:49;;;;;;;2.95;0.70;;;8.60;86.30;;;;;;5085188;28;20047;-58
2023/04/03 17:16:15;;;;;;;1.95;0.60;;;8.60;84.00;;;;;;5085792;28;20074;-55
2023/04/03 17:18:42;;;;;;;2.53;0.82;;;8.50;85.80;;;;;;5086328;28;20398;-57
2023/04/03 17:21:08;;;;;;;2.80;0.70;;;8.40;85.60;;;;;;5086503;28;20128;-58
2023/04/03 17:23:35;;;;;;;3.80;0.80;;;8.30;86.50;;;;;;5085370;28;20530;-56
2023/04/03 17:26:04;;;;;;;2.25;0.60;;;8.30;88.70;;;;;;5068080;28;20039;-56
2023/04/03 17:28:30;;;;;;;3.75;1.00;;;8.20;87.00;;;;;;5084505;28;20051;-54
2023/04/03 17:30:58;;;;;;;2.28;0.85;;;8.00;86.20;;;;;;5085439;28;20052;-58
2023/04/03 17:33:25;;;;;;;2.92;0.73;;;8.00;86.90;;;;;;5085484;28;20495;-58
2023/04/03 17:35:51;;;;;;;3.67;0.90;;;7.90;88.10;;;;;;5084812;28;20085;-58
2023/04/03 17:38:17;;;;;;;2.20;0.90;;;7.80;89.40;;;;;;5067035;28;20043;-55
2023/04/03 17:40:44;;;;;;;5.32;0.93;;;7.80;89.30;;;;;;5085573;28;20083;-59
2023/04/03 17:43:10;;;;;;;2.95;1.00;;;7.70;90.10;;;;;;5084737;28;20040;-52
2023/04/03 17:45:36;;;;;;;3.30;0.90;;;7.60;90.10;;;;;;5084755;28;20128;-56
2023/04/03 17:48:02;;;;;;;2.88;1.00;;;7.60;90.10;;;;;;5084259;28;20044;-56
2023/04/03 17:50:28;;;;;;;2.08;0.98;;;7.50;90.00;;;;;;5084602;28;20131;-60
2023/04/03 17:52:54;;;;;;;2.28;0.80;;;7.40;89.20;;;;;;5066620;28;20059;-52
2023/04/03 17:55:20;;;;;;;3.67;0.90;;;7.30;89.40;;;;;;5083919;28;20044;-63
2023/04/03 17:57:46;;;;;;;2.40;0.90;;;7.20;90.90;;;;;;5084047;28;20062;-57
2023/04/03 18:00:12;;;;;;;5.13;1.20;;;7.10;90.80;;;;;;5085112;28;20502;-62
2023/04/03 18:02:38;;;;;;;3.20;1.13;;;7.00;91.00;;;;;;5085393;28;20040;-59
2023/04/03 18:05:04;;;;;;;2.35;0.90;;;6.90;91.70;;;;;;5084897;28;20347;-61
2023/04/03 18:07:30;;;;;;;4.18;1.40;;;6.90;91.80;;;;;;5085076;28;20050;-63
2023/04/03 18:09:57;;;;;;;2.15;0.98;;;7.00;91.90;;;;;;5084830;28;20461;-58
2023/04/03 18:12:24;;;;;;;3.83;1.30;;;6.70;92.50;;;;;;5083779;28;20036;-57
2023/04/03 18:14:50;;;;;;;2.92;1.00;;;6.80;92.90;;;;;;5084968;28;20080;-63
2023/04/03 18:17:18;;;;;;;3.25;1.17;;;6.70;93.30;;;;;;5084973;28;20094;-60
2023/04/03 18:19:43;;;;;;;6.40;1.50;;;6.50;94.10;;;;;;5084846;28;20044;-61
2023/04/03 18:22:14;;;;;;;4.18;1.40;;;6.50;95.10;;;;;;5085184;28;20043;-61
2023/04/03 18:24:42;;;;;;;3.63;1.10;;;6.50;94.10;;;;;;5085536;28;20044;-60
2023/04/03 18:27:13;;;;;;;2.85;1.20;;;6.60;95.20;;;;;;5085351;28;20083;-62
2023/04/03 18:29:40;;;;;;;3.90;1.35;;;6.40;96.70;;;;;;5089368;28;20047;-62
2023/04/03 18:32:09;;;;;;;3.55;1.50;;;6.40;97.80;;;;;;5088908;28;20542;-60
2023/04/03 18:34:34;;;;;;;3.30;1.25;;;6.30;97.50;;;;;;5081705;28;20060;-50
2023/04/03 18:37:01;;;;;;;4.25;1.30;;;6.20;98.20;;;;;;5087307;28;20505;-60
2023/04/03 18:39:27;;;;;;;3.35;1.10;;;6.20;97.90;;;;;;5086002;28;20060;-56
2023/04/03 18:41:54;;;;;;;3.75;1.20;;;6.10;98.70;;;;;;5086463;28;20571;-60
2023/04/03 18:44:22;;;;;;;2.80;1.33;;;6.20;99.40;;;;;;5086351;28;20139;-57
2023/04/03 18:46:48;;;;;;;2.58;1.27;;;6.10;99.10;;;;;;5086813;28;20046;-60
2023/04/03 18:49:15;;;;;;;3.42;1.35;;;6.10;99.90;;;;;;5085626;28;20048;-60
2023/04/03 18:51:41;;;;;;;4.35;1.30;;;6.00;99.90;;;;;;5086447;28;20126;-59
2023/04/03 18:54:08;;;;;;;3.88;1.35;;;6.00;99.90;;;;;;5086950;28;20541;-51
2023/04/03 18:56:35;;;;;;;3.13;1.50;;;5.90;99.90;;;;;;5086843;28;20048;-59
2023/04/03 18:59:01;;;;;;;3.20;1.30;;;5.80;99.90;;;;;;5086610;28;20056;-58
2023/04/03 19:01:27;;;;;;;3.60;1.65;;;5.80;99.90;;;;;;5086852;28;20101;-56
2023/04/03 19:03:52;;;;;;;4.15;1.70;;;5.80;99.90;;;;;;5068714;28;20104;-62
2023/04/03 19:06:18;;;;;;;3.33;1.55;;;5.80;99.90;;;;;;5087056;28;20036;-61
2023/04/03 19:08:44;;;;;;;4.90;1.55;;;5.80;99.90;;;;;;5086044;28;20093;-62
2023/04/03 19:11:10;;;;;;;6.05;1.65;;;6.00;99.90;;;;;;5087622;28;20569;-61
2023/04/03 19:13:36;;;;;;;4.32;1.55;;;5.60;99.90;;;;;;5086208;28;20044;-62
2023/04/03 19:16:02;;;;;;;2.78;1.10;;;5.60;99.90;;;;;;5086615;28;20052;-59
2023/04/03 19:18:28;;;;;;;3.42;1.27;;;5.60;99.90;;;;;;5085702;28;20084;-58
2023/04/03 19:20:58;;;;;;;3.88;1.70;;;5.70;99.90;;;;;;5086952;28;20048;-54
2023/04/03 19:23:25;;;;;;;4.28;1.42;;;5.50;99.90;;;;;;5068932;28;20641;-53
2023/04/03 19:26:02;;;;;;;4.72;1.80;;;5.40;99.90;;;;;;5068478;28;20083;-61
2023/04/03 19:28:28;;;;;;;5.95;1.50;;;5.40;99.90;;;;;;5085578;28;20068;-60
2023/04/03 19:30:53;;;;;;;4.22;1.40;;;5.70;99.90;;;;;;5086428;28;20097;-58
2023/04/03 19:33:20;;;;;;;3.40;1.30;;;5.30;99.90;;;;;;5068587;28;20789;-60
2023/04/03 19:35:45;;;;;;;4.95;1.58;;;5.30;99.90;;;;;;5086037;28;20056;-54
2023/04/03 19:38:11;;;;;;;4.97;1.60;;;5.30;99.90;;;;;;5086742;28;20130;-61
2023/04/03 19:40:42;;;;;;;2.95;1.10;;;5.60;99.90;;;;;;5085610;28;20101;-60
2023/04/03 19:43:12;;;;;;;3.85;1.40;;;5.20;99.90;;;;;;5085792;28;20052;-60
2023/04/03 19:45:39;;;;;;;4.22;1.52;;;5.20;99.90;;;;;;5086070;28;20071;-59
2023/04/03 19:48:05;;;;;;;4.97;1.65;;;5.20;99.90;;;;;;5085904;28;20058;-62
2023/04/03 19:50:32;;;;;;;2.63;1.20;;;5.20;99.90;;;;;;5085884;28;20048;-60
2023/04/03 19:52:59;;;;;;;3.17;1.40;;;5.10;99.90;;;;;;5086775;28;20170;-58
2023/04/03 19:55:29;;;;;;;3.85;1.65;;;5.10;99.90;;;;;;5086151;28;20150;-56
2023/04/03 19:57:59;;;;;;;3.67;1.45;;;5.10;99.90;;;;;;5085272;28;20067;-61
2023/04/03 20:00:25;;;;;;;6.53;1.58;;;5.10;99.90;;;;;;5086308;28;20367;-56
2023/04/03 20:02:51;;;;;;;4.10;1.60;;;5.00;99.90;;;;;;5085278;28;20083;-56
2023/04/03 20:05:16;;;;;;;4.95;1.80;;;5.00;99.90;;;;;;5086027;28;20048;-57
2023/04/03 20:07:42;;;;;;;5.57;1.90;;;5.00;99.90;;;;;;5085491;28;20647;-59
2023/04/03 20:10:10;;;;;;;4.35;2.00;;;5.00;99.90;;;;;;5086058;28;20044;-58
2023/04/03 20:12:38;;;;;;;5.07;1.70;;;5.00;99.90;;;;;;5066149;28;20056;-62
2023/04/03 20:15:06;;;;;;;5.05;1.90;;;5.00;99.90;;;;;;5085697;28;20390;-61
2023/04/03 20:17:33;;;;;;;5.15;2.00;;;4.90;99.90;;;;;;5084272;28;20543;-61
2023/04/03 20:20:00;;;;;;;4.70;1.83;;;4.80;99.90;;;;;;5085365;28;20040;-59
2023/04/03 20:22:33;;;;;;;5.45;1.98;;;4.80;99.90;;;;;;5066940;28;20098;-61
2023/04/03 20:25:01;;;;;;;5.30;2.30;;;4.70;99.90;;;;;;5086052;28;20044;-61
2023/04/03 20:27:28;;;;;;;4.43;2.30;;;4.70;99.90;;;;;;5083770;28;20201;-57
2023/04/03 20:29:53;;;;;;;8.48;2.45;;;4.70;99.90;;;;;;5085247;28;20086;-54
2023/04/03 20:32:20;;;;;;;6.72;2.47;;;4.70;99.90;;;;;;5085182;28;20075;-54
2023/04/03 20:34:46;;;;;;;5.57;2.25;;;4.70;99.90;;;;;;5066267;28;20059;-51
2023/04/03 20:37:13;;;;;;;5.97;2.60;;;4.70;99.90;;;;;;5085882;28;20611;-62
2023/04/03 20:39:38;;;;;;;6.88;2.58;;;4.70;99.90;;;;;;5084361;28;20052;-61
2023/04/03 20:42:04;;;;;;;4.80;2.47;;;4.60;99.90;;;;;;5084992;28;20051;-58
2023/04/03 20:44:30;;;;;;;5.38;2.70;;;4.70;99.90;;;;;;5084707;28;20430;-53
2023/04/03 20:46:57;;;;;;;5.03;2.78;;;4.60;99.90;;;;;;5066987;28;20048;-63
2023/04/03 20:49:23;;;;;;;6.05;2.80;;;4.50;99.90;;;;;;5083754;28;20048;-60
2023/04/03 20:51:50;;;;;;;6.50;2.67;;;4.40;99.90;;;;;;5084180;28;20044;-58
2023/04/03 20:54:16;;;;;;;5.53;2.45;;;4.40;99.90;;;;;;5085194;28;20063;-59
2023/04/03 20:56:43;;;;;;;5.88;2.75;;;4.30;99.90;;;;;;5084400;28;20032;-58
2023/04/03 20:59:09;;;;;;;7.43;3.08;;;4.70;99.90;;;;;;5084929;28;20808;-62
2023/04/03 21:01:35;;;;;;;7.55;3.47;;;4.20;99.90;;;;;;5083887;28;20040;-62
2023/04/03 21:04:29;;;;;;;6.07;3.03;;;4.20;99.90;;;;;;5085247;28;20073;-60
2023/04/03 21:07:32;;;;;;;10.75;3.08;;;4.00;99.90;;;;;;5085279;28;20044;-60
2023/04/03 21:10:36;;;;;;;6.43;2.80;;;3.90;99.90;;;;;;5084284;28;20383;-58
2023/04/03 21:13:39;;;;;;;6.10;2.95;;;3.80;99.90;;;;;;5081605;28;20145;-57
2023/04/03 21:16:04;;;;;;;7.32;3.13;;;3.70;99.90;;;;;;5063917;28;20052;-55
2023/04/03 21:18:40;;;;;;;5.78;3.10;;;3.70;99.90;;;;;;5082458;28;20071;-61
2023/04/03 21:21:18;;;;;;;4.68;3.03;;;3.90;99.90;;;;;;5082593;28;20063;-55
2023/04/03 21:23:45;;;;;;;5.32;3.15;;;3.70;99.90;;;;;;5082047;28;21010;-62
2023/04/03 21:26:11;;;;;;;7.07;2.65;;;4.30;99.90;;;;;;5082486;28;20437;-60
2023/04/03 21:28:37;;;;;;;6.22;3.08;;;3.60;99.90;;;;;;5081768;28;20054;-62
2023/04/03 21:31:02;;;;;;;5.05;2.90;;;3.50;99.90;;;;;;5080991;28;20449;-54
2023/04/03 21:33:28;;;;;;;6.82;2.90;;;3.40;99.90;;;;;;5082165;28;20454;-60
2023/04/03 21:35:57;;;;;;;4.70;3.00;;;3.70;99.90;;;;;;5083767;28;20048;-59
2023/04/03 21:38:24;;;;;;;10.07;3.38;;;3.40;99.90;;;;;;5083156;28;20407;-55
2023/04/03 21:40:51;;;;;;;8.25;3.13;;;3.40;99.90;;;;;;5083656;28;20056;-57
2023/04/03 21:43:16;;;;;;;7.53;3.80;;;3.40;99.90;;;;;;5063415;28;20501;-59
2023/04/03 21:45:42;;;;;;;7.25;3.20;;;3.70;99.90;;;;;;5082140;28;20048;-57
2023/04/03 21:48:09;;;;;;;7.43;3.67;;;3.40;99.90;;;;;;5081458;28;20051;-61
2023/04/03 21:50:35;;;;;;;5.03;3.13;;;3.90;99.90;;;;;;5082276;28;20055;-58
2023/04/03 21:53:02;;;;;;;6.05;3.20;;;3.40;99.90;;;;;;5083674;28;20143;-60
2023/04/03 21:55:28;;;;;;;11.55;3.70;;;3.40;99.90;;;;;;5082896;28;20047;-59
2023/04/03 21:57:54;;;;;;;6.57;3.25;;;3.90;99.90;;;;;;5082629;28;20040;-59
2023/04/03 22:00:21;;;;;;;10.18;4.20;;;3.40;99.90;;;;;;5083356;28;20066;-58
2023/04/03 22:02:47;;;;;;;6.45;3.38;;;3.40;99.90;;;;;;5087057;28;20044;-58
2023/04/03 22:05:12;;;;;;;6.78;3.53;;;3.70;99.90;;;;;;5088144;28;20051;-58
2023/04/03 22:07:38;;;;;;;7.72;3.50;;;3.40;99.90;;;;;;5087960;28;20075;-58
2023/04/03 22:10:05;;;;;;;8.90;3.50;;;3.40;99.90;;;;;;5069668;28;20466;-62
2023/04/03 22:12:31;;;;;;;8.07;3.28;;;3.30;99.90;;;;;;5086945;28;20044;-61
2023/04/03 22:14:56;;;;;;;5.57;3.38;;;3.20;99.90;;;;;;5069600;28;20051;-63
2023/04/03 22:17:22;;;;;;;6.57;3.60;;;3.30;99.90;;;;;;5087734;28;20036;-59
2023/04/03 22:19:48;;;;;;;6.78;3.85;;;3.30;99.90;;;;;;5087690;28;20048;-58
2023/04/03 22:22:13;;;;;;;8.75;3.15;;;3.10;99.90;;;;;;5087720;28;20047;-61
2023/04/03 22:24:39;;;;;;;7.07;3.40;;;3.00;99.90;;;;;;5087660;28;20048;-61
2023/04/03 22:27:05;;;;;;;6.90;3.50;;;3.50;99.90;;;;;;5086658;28;20111;-57
2023/04/03 22:29:31;;;;;;;6.80;3.65;;;3.00;99.90;;;;;;5087520;28;20535;-60
2023/04/03 22:31:57;;;;;;;5.70;3.38;;;3.10;99.90;;;;;;5087876;28;20082;-61
2023/04/03 22:34:23;;;;;;;8.43;3.75;;;3.00;99.90;;;;;;5087548;28;20506;-58
2023/04/03 22:36:49;;;;;;;5.07;3.45;;;3.00;99.90;;;;;;5087111;28;20115;-59
2023/04/03 22:39:15;;;;;;;6.10;3.30;;;3.00;99.90;;;;;;5087154;28;20202;-56
2023/04/03 22:41:43;;;;;;;8.00;3.72;;;3.00;99.90;;;;;;5086430;28;20491;-61
2023/04/03 22:44:10;;;;;;;7.18;3.80;;;3.00;99.90;;;;;;5086800;28;20044;-61
2023/04/03 22:46:35;;;;;;;8.65;4.07;;;3.00;99.90;;;;;;5087028;28;20131;-58
2023/04/03 22:49:01;;;;;;;7.35;3.53;;;3.10;99.90;;;;;;5087161;28;20147;-61
2023/04/03 22:51:27;;;;;;;7.38;3.92;;;2.90;99.90;;;;;;5086665;28;20048;-60
2023/04/03 22:53:52;;;;;;;8.00;3.92;;;3.00;99.90;;;;;;5087240;28;20672;-53
2023/04/03 22:56:18;;;;;;;7.65;4.25;;;3.00;99.90;;;;;;5068923;28;20522;-61
2023/04/03 22:58:46;;;;;;;7.30;3.58;;;3.00;99.90;;;;;;5086557;28;20068;-58
2023/04/03 23:01:13;;;;;;;6.07;3.70;;;3.00;99.90;;;;;;5086890;28;20125;-58
2023/04/03 23:03:40;;;;;;;7.50;3.55;;;2.90;99.90;;;;;;5086931;28;20043;-60
2023/04/03 23:06:07;;;;;;;9.07;4.38;;;2.90;99.90;;;;;;5086780;28;20054;-50
2023/04/03 23:08:34;;;;;;;8.77;3.63;;;2.80;99.90;;;;;;5086742;28;20036;-58
2023/04/03 23:11:00;;;;;;;7.57;3.90;;;2.70;99.90;;;;;;5087088;28;20389;-60
2023/04/03 23:13:26;;;;;;;7.25;3.80;;;2.60;99.90;;;;;;5067572;28;20486;-60
2023/04/03 23:15:53;;;;;;;10.00;4.40;;;2.60;99.90;;;;;;5086773;28;20052;-59
2023/04/03 23:18:19;;;;;;;5.63;3.63;;;2.60;99.90;;;;;;5087138;28;20459;-57
2023/04/03 23:20:45;;;;;;;8.02;4.18;;;2.60;99.90;;;;;;5086626;28;20097;-57
2023/04/03 23:23:11;;;;;;;6.78;3.85;;;3.10;99.90;;;;;;5085948;28;20044;-61
2023/04/03 23:25:37;;;;;;;8.68;3.63;;;2.60;99.90;;;;;;5086613;28;20122;-60
2023/04/03 23:28:03;;;;;;;8.10;4.13;;;2.60;99.90;;;;;;5085410;28;20058;-60
2023/04/03 23:30:28;;;;;;;7.00;4.13;;;2.60;99.90;;;;;;5086152;28;20040;-60
2023/04/03 23:32:54;;;;;;;6.65;4.18;;;2.50;99.90;;;;;;5086681;28;20039;-60
2023/04/03 23:35:20;;;;;;;10.02;4.38;;;2.50;99.90;;;;;;5086687;28;20087;-59
2023/04/03 23:37:46;;;;;;;7.38;4.32;;;2.50;99.90;;;;;;5086245;28;20134;-61
2023/04/03 23:40:12;;;;;;;7.25;4.47;;;2.50;99.90;;;;;;5085781;28;20558;-61
2023/04/03 23:42:37;;;;;;;9.13;4.65;;;2.50;99.90;;;;;;5085706;28;20080;-62
2023/04/03 23:45:03;;;;;;;8.15;4.25;;;2.50;99.90;;;;;;5086382;28;20036;-57
2023/04/03 23:47:29;;;;;;;7.25;4.15;;;2.50;99.90;;;;;;5085867;28;20086;-59
2023/04/03 23:49:55;;;;;;;9.27;4.55;;;2.50;99.90;;;;;;5086324;28;20059;-60
2023/04/03 23:52:20;;;;;;;8.98;4.40;;;2.50;99.90;;;;;;5086049;28;20063;-58
2023/04/03 23:54:46;;;;;;;11.40;4.68;;;2.50;99.90;;;;;;5085616;28;20100;-58
2023/04/03 23:57:11;;;;;;;9.05;4.55;;;3.30;99.90;;;;;;5085637;28;20044;-57
2023/04/03 23:59:37;;;;;;;7.70;4.30;;;2.50;99.90;;;;;;5085905;28;20048;-52
